createdAt,value
2018-09-26T00:09:01.816Z,61.20
2018-09-26T00:11:30.338Z,61.20
2018-09-26T00:13:58.817Z,61.20
2018-09-26T00:16:27.315Z,61.20
2018-09-26T00:18:55.865Z,60.90
2018-09-26T00:21:24.469Z,60.80
2018-09-26T00:23:53.205Z,60.30
2018-09-26T00:26:21.760Z,59.80
2018-09-26T00:28:52.346Z,59.60
2018-09-26T00:31:22.147Z,59.50
2018-09-26T00:33:50.785Z,59.30
2018-09-26T00:36:19.387Z,59.30
2018-09-26T00:38:48.097Z,59.30
2018-09-26T00:41:16.754Z,59.50
2018-09-26T00:43:45.672Z,60.10
2018-09-26T00:46:14.242Z,59.40
2018-09-26T00:48:42.732Z,58.80
2018-09-26T00:53:39.787Z,58.80
2018-09-26T00:56:08.365Z,58.90
2018-09-26T01:01:05.240Z,58.60
2018-09-26T01:03:33.727Z,58.90
2018-09-26T01:06:02.343Z,58.50
2018-09-26T01:08:30.854Z,58.20
2018-09-26T01:11:00.999Z,58.10
2018-09-26T01:13:32.252Z,58.20
2018-09-26T01:16:02.598Z,58.40
2018-09-26T01:18:33.183Z,58.70
2018-09-26T01:21:05.215Z,58.80
2018-09-26T01:23:35.481Z,58.80
2018-09-26T01:26:05.939Z,58.90
2018-09-26T01:28:35.836Z,58.50
2018-09-26T01:31:06.292Z,58.60
2018-09-26T01:36:06.795Z,58.80
2018-09-26T01:41:08.994Z,59.00
2018-09-26T01:43:40.442Z,59.20
2018-09-26T01:46:13.101Z,59.40
2018-09-26T01:48:44.097Z,59.70
2018-09-26T01:51:13.925Z,59.80
2018-09-26T01:56:13.916Z,60.60
2018-09-26T01:58:44.005Z,60.50
2018-09-26T02:01:14.156Z,60.90
2018-09-26T02:03:44.615Z,60.90
2018-09-26T02:06:14.986Z,61.00
2018-09-26T02:08:46.037Z,61.00
2018-09-26T02:11:16.101Z,60.90
2018-09-26T02:16:16.585Z,61.70
2018-09-26T02:18:47.676Z,61.10
2018-09-26T02:23:49.311Z,60.40
2018-09-26T02:26:19.337Z,60.70
2018-09-26T02:28:47.997Z,60.60
2018-09-26T02:33:44.847Z,60.30
2018-09-26T02:38:42.151Z,60.00
2018-09-26T02:41:10.925Z,59.60
2018-09-26T02:43:41.477Z,59.60
2018-09-26T02:46:11.459Z,59.70
2018-09-26T02:48:46.543Z,59.80
2018-09-26T02:51:16.359Z,59.70
2018-09-26T02:56:15.681Z,59.80
2018-09-26T03:03:43.416Z,59.70
2018-09-26T03:06:13.808Z,59.70
2018-09-26T03:08:43.731Z,59.50
2018-09-26T03:11:13.581Z,59.60
2018-09-26T03:13:43.763Z,59.80
2018-09-26T03:16:14.271Z,60.30
2018-09-26T03:18:47.015Z,60.60
2018-09-26T03:21:17.298Z,60.70
2018-09-26T03:23:47.025Z,60.50
2018-09-26T03:26:16.817Z,60.80
2018-09-26T03:28:46.982Z,60.50
2018-09-26T03:31:17.018Z,60.30
2018-09-26T03:33:47.343Z,60.50
2018-09-26T03:36:17.179Z,60.70
2018-09-26T03:38:49.682Z,60.90
2018-09-26T03:41:18.580Z,61.10
2018-09-26T03:43:48.064Z,61.50
2018-09-26T03:46:18.676Z,61.80
2018-09-26T03:48:47.268Z,61.80
2018-09-26T03:51:15.753Z,61.50
2018-09-26T03:53:44.603Z,61.70
2018-09-26T03:56:16.214Z,61.80
2018-09-26T03:58:45.786Z,61.50
2018-09-26T04:01:15.424Z,61.10
2018-09-26T04:03:45.178Z,61.70
2018-09-26T04:06:14.862Z,60.60
2018-09-26T04:08:44.622Z,60.40
2018-09-26T04:11:14.330Z,60.80
2018-09-26T04:13:44.677Z,61.20
2018-09-26T04:16:14.844Z,61.30
2018-09-26T04:21:13.634Z,61.50
2018-09-26T04:23:43.695Z,61.60
2018-09-26T04:26:19.336Z,61.60
2018-09-26T04:29:11.945Z,62.10
2018-09-26T04:31:47.931Z,62.00
2018-09-26T04:34:24.949Z,62.40
2018-09-26T04:37:07.210Z,62.10
2018-09-26T04:39:49.456Z,61.80
2018-09-26T04:48:31.567Z,62.10
2018-09-26T04:51:02.077Z,62.30
2018-09-26T04:53:40.183Z,64.30
2018-09-26T04:56:08.805Z,64.30
2018-09-26T04:58:37.315Z,64.10
2018-09-26T05:01:06.244Z,63.90
2018-09-26T05:03:34.848Z,63.30
2018-09-26T05:06:03.341Z,63.00
2018-09-26T05:08:31.911Z,62.40
2018-09-26T05:11:00.503Z,62.20
2018-09-26T05:13:30.083Z,61.80
2018-09-26T05:15:59.187Z,61.90
2018-09-26T05:18:27.850Z,62.00
2018-09-26T05:20:56.423Z,62.00
2018-09-26T05:23:25.139Z,61.90
2018-09-26T05:25:54.617Z,62.10
2018-09-26T05:28:23.135Z,62.00
2018-09-26T05:30:51.756Z,61.80
2018-09-26T05:33:20.265Z,61.80
2018-09-26T05:35:48.953Z,62.00
2018-09-26T05:38:17.469Z,61.80
2018-09-26T05:40:46.830Z,62.40
2018-09-26T05:43:15.309Z,63.10
2018-09-26T05:45:43.836Z,62.70
2018-09-26T05:48:12.332Z,62.20
2018-09-26T05:50:40.825Z,61.70
2018-09-26T05:53:09.368Z,61.20
2018-09-26T05:55:38.029Z,61.00
2018-09-26T05:58:06.541Z,60.90
2018-09-26T06:00:35.112Z,60.70
2018-09-26T06:03:03.861Z,61.40
2018-09-26T06:05:32.538Z,60.50
2018-09-26T06:08:01.679Z,60.50
2018-09-26T06:10:30.117Z,60.60
2018-09-26T06:12:58.754Z,60.90
2018-09-26T06:17:55.365Z,60.80
2018-09-26T06:20:23.904Z,60.80
2018-09-26T06:25:20.694Z,60.30
2018-09-26T06:27:49.263Z,60.30
2018-09-26T06:30:17.804Z,60.10
2018-09-26T06:32:46.384Z,60.00
2018-09-26T06:35:14.983Z,59.70
2018-09-26T06:37:43.503Z,59.60
2018-09-26T06:40:11.972Z,59.00
2018-09-26T06:42:40.643Z,58.80
2018-09-26T06:47:40.032Z,58.80
2018-09-26T06:50:08.564Z,59.00
2018-09-26T06:52:37.056Z,59.10
2018-09-26T06:55:05.715Z,59.00
2018-09-26T06:57:35.064Z,58.70
2018-09-26T07:00:04.424Z,58.60
2018-09-26T07:02:38.583Z,58.50
2018-09-26T07:05:08.158Z,58.20
2018-09-26T07:07:36.792Z,58.40
2018-09-26T07:10:05.401Z,58.30
2018-09-26T07:15:04.386Z,58.30
2018-09-26T07:17:34.295Z,58.40
2018-09-26T07:20:02.984Z,58.00
2018-09-26T07:22:31.600Z,58.00
2018-09-26T07:25:00.635Z,57.70
2018-09-26T07:27:29.240Z,57.50
2018-09-26T07:29:57.718Z,57.70
2018-09-26T07:32:26.354Z,57.60
2018-09-26T07:34:54.840Z,57.40
2018-09-26T07:37:23.433Z,57.40
2018-09-26T07:39:52.017Z,56.80
2018-09-26T07:42:23.945Z,56.00
2018-09-26T07:44:52.497Z,55.80
2018-09-26T07:47:21.940Z,55.50
2018-09-26T07:49:50.713Z,55.20
2018-09-26T07:54:47.511Z,55.00
2018-09-26T07:57:16.029Z,54.20
2018-09-26T07:59:45.629Z,54.40
2018-09-26T08:02:14.204Z,53.80
2018-09-26T08:04:42.688Z,54.00
2018-09-26T08:07:11.444Z,52.80
2018-09-26T08:09:39.979Z,52.80
2018-09-26T08:14:37.189Z,51.10
2018-09-26T08:17:06.839Z,51.70
2018-09-26T08:19:35.481Z,51.20
2018-09-26T08:22:06.027Z,51.20
2018-09-26T08:24:34.488Z,51.60
2018-09-26T08:27:03.398Z,51.40
2018-09-26T08:29:32.004Z,51.30
2018-09-26T08:32:00.527Z,51.00
2018-09-26T08:34:31.192Z,51.60
2018-09-26T08:36:59.714Z,50.50
2018-09-26T08:41:56.447Z,49.80
2018-09-26T08:44:25.614Z,49.70
2018-09-26T08:46:54.097Z,49.90
2018-09-26T08:51:53.282Z,49.90
2018-09-26T08:54:21.784Z,50.20
2018-09-26T08:56:50.292Z,50.50
2018-09-26T08:59:21.172Z,50.60
2018-09-26T09:01:50.949Z,50.40
2018-09-26T09:04:19.667Z,50.10
2018-09-26T09:06:49.935Z,49.80
2018-09-26T09:09:18.993Z,50.20
2018-09-26T09:11:47.752Z,49.60
2018-09-26T09:14:16.448Z,49.10
2018-09-26T09:16:45.359Z,49.00
2018-09-26T09:19:16.314Z,49.10
2018-09-26T09:21:45.042Z,49.00
2018-09-26T09:24:13.786Z,47.90
2018-09-26T09:26:42.578Z,46.90
2018-09-26T09:29:11.554Z,47.50
2018-09-26T09:31:40.191Z,47.60
2018-09-26T09:34:10.860Z,47.40
2018-09-26T09:36:39.643Z,46.30
2018-09-26T09:39:10.281Z,45.70
2018-09-26T09:41:39.278Z,46.00
2018-09-26T09:44:08.075Z,45.70
2018-09-26T09:49:06.267Z,45.00
2018-09-26T09:51:35.015Z,44.60
2018-09-26T09:54:04.195Z,44.50
2018-09-26T09:59:03.800Z,43.60
2018-09-26T10:01:34.677Z,43.60
2018-09-26T10:04:03.565Z,43.10
2018-09-26T10:06:33.411Z,44.00
2018-09-26T10:09:02.194Z,43.20
2018-09-26T10:11:31.749Z,43.70
2018-09-26T10:14:00.736Z,43.00
2018-09-26T10:16:30.129Z,43.20
2018-09-26T10:18:58.800Z,43.10
2018-09-26T10:21:27.479Z,43.30
2018-09-26T10:23:56.209Z,43.60
2018-09-26T10:26:26.047Z,44.30
2018-09-26T10:31:23.526Z,44.20
2018-09-26T10:33:52.467Z,43.80
2018-09-26T10:36:22.269Z,43.70
2018-09-26T10:38:52.001Z,43.70
2018-09-26T10:41:20.770Z,43.20
2018-09-26T10:46:52.810Z,42.80
2018-09-26T10:49:21.593Z,42.60
2018-09-26T10:51:50.282Z,41.90
2018-09-26T10:54:19.062Z,41.70
2018-09-26T10:56:48.025Z,41.60
2018-09-26T10:59:16.703Z,41.60
2018-09-26T11:01:45.480Z,40.90
2018-09-26T11:04:14.234Z,41.70
2018-09-26T11:06:43.160Z,40.50
2018-09-26T11:09:12.062Z,40.70
2018-09-26T11:11:40.910Z,40.40
2018-09-26T11:14:09.784Z,39.90
2018-09-26T11:16:40.611Z,39.50
2018-09-26T11:19:09.411Z,39.60
2018-09-26T11:21:39.678Z,40.00
2018-09-26T11:24:08.579Z,40.30
2018-09-26T11:26:38.219Z,40.50
2018-09-26T11:29:07.220Z,40.50
2018-09-26T11:31:36.717Z,40.40
2018-09-26T11:34:05.388Z,40.20
2018-09-26T11:39:06.059Z,39.70
2018-09-26T11:41:34.731Z,38.80
2018-09-26T11:44:03.659Z,39.00
2018-09-26T11:46:32.272Z,39.40
2018-09-26T11:51:31.797Z,37.90
2018-09-26T11:56:29.942Z,35.80
2018-09-26T11:58:58.628Z,35.30
2018-09-26T12:01:27.332Z,36.00
2018-09-26T12:03:55.961Z,34.50
2018-09-26T12:06:24.701Z,32.70
2018-09-26T12:08:53.303Z,31.90
2018-09-26T12:11:22.259Z,31.20
2018-09-26T12:13:50.954Z,30.80
2018-09-26T12:18:48.162Z,30.00
2018-09-26T12:23:45.707Z,31.20
2018-09-26T12:26:19.869Z,31.80
2018-09-26T12:28:48.853Z,32.40
2018-09-26T12:31:17.601Z,33.10
2018-09-26T12:36:18.805Z,34.00
2018-09-26T12:38:47.643Z,34.50
2018-09-26T12:41:18.118Z,34.30
2018-09-26T12:43:49.241Z,34.20
2018-09-26T12:48:50.987Z,34.70
2018-09-26T12:51:20.063Z,35.70
2018-09-26T12:53:49.208Z,34.80
2018-09-26T12:56:21.474Z,35.40
2018-09-26T12:58:50.614Z,35.00
2018-09-26T13:01:20.502Z,35.10
2018-09-26T13:03:53.621Z,35.40
2018-09-26T13:06:33.501Z,35.60
2018-09-26T13:09:05.154Z,35.60
2018-09-26T13:11:36.037Z,35.50
2018-09-26T13:14:05.758Z,35.50
2018-09-26T13:16:35.148Z,35.10
2018-09-26T13:19:03.849Z,35.30
2018-09-26T13:24:01.930Z,35.90
2018-09-26T13:26:30.897Z,36.00
2018-09-26T13:33:55.970Z,35.40
2018-09-26T13:36:24.682Z,35.20
2018-09-26T13:38:55.490Z,34.80
2018-09-26T13:41:24.132Z,34.50
2018-09-26T13:46:22.096Z,34.30
2018-09-26T13:48:50.605Z,34.30
2018-09-26T13:53:48.073Z,34.30
2018-09-26T13:58:44.777Z,34.10
2018-09-26T14:01:13.413Z,34.40
2018-09-26T14:03:42.184Z,34.10
2018-09-26T14:08:39.283Z,34.30
2018-09-26T14:13:36.130Z,34.10
2018-09-26T14:16:05.287Z,34.30
2018-09-26T14:18:36.342Z,33.60
2018-09-26T14:23:34.992Z,33.90
2018-09-26T14:28:32.233Z,33.90
2018-09-26T14:33:29.013Z,33.90
2018-09-26T14:35:58.591Z,34.30
2018-09-26T14:38:27.180Z,33.70
2018-09-26T14:43:23.972Z,33.70
2018-09-26T14:46:00.353Z,33.80
2018-09-26T14:48:28.872Z,34.10
2018-09-26T14:50:57.364Z,34.30
2018-09-26T14:53:26.984Z,33.70
2018-09-26T14:55:57.228Z,33.90
2018-09-26T14:58:25.988Z,34.00
2018-09-26T15:00:55.448Z,34.40
2018-09-26T15:03:23.975Z,34.50
2018-09-26T15:08:24.967Z,33.90
2018-09-26T15:10:56.386Z,34.10
2018-09-26T15:13:26.158Z,34.50
2018-09-26T15:15:55.674Z,34.40
2018-09-26T15:20:54.993Z,34.50
2018-09-26T15:25:52.201Z,35.00
2018-09-26T15:28:21.120Z,34.50
2018-09-26T15:30:50.968Z,34.60
2018-09-26T15:35:58.666Z,34.60
2018-09-26T15:38:27.215Z,34.60
2018-09-26T15:40:56.674Z,34.80
2018-09-26T15:43:25.254Z,34.70
2018-09-26T15:45:53.756Z,35.00
2018-09-26T15:48:22.341Z,34.60
2018-09-26T15:50:50.854Z,34.90
2018-09-26T15:53:19.316Z,34.30
2018-09-26T15:55:48.226Z,34.50
2018-09-26T15:58:17.693Z,35.00
2018-09-26T16:00:48.017Z,34.70
2018-09-26T16:03:17.520Z,34.70
2018-09-26T16:05:46.443Z,35.30
2018-09-26T16:08:15.051Z,34.80
2018-09-26T16:10:43.555Z,34.70
2018-09-26T16:13:12.092Z,34.60
2018-09-26T16:15:40.774Z,35.10
2018-09-26T16:18:10.161Z,34.70
2018-09-26T16:20:38.757Z,35.50
2018-09-26T16:23:07.582Z,35.10
2018-09-26T16:25:38.469Z,35.20
2018-09-26T16:28:07.060Z,35.10
2018-09-26T16:30:36.219Z,35.80
2018-09-26T16:33:04.892Z,35.70
2018-09-26T16:35:33.444Z,35.60
2018-09-26T16:38:02.007Z,36.40
2018-09-26T16:40:31.860Z,37.00
2018-09-26T16:43:01.033Z,37.20
2018-09-26T16:45:29.580Z,36.80
2018-09-26T16:47:59.700Z,36.70
2018-09-26T16:50:28.290Z,37.00
2018-09-26T16:55:29.602Z,37.90
2018-09-26T16:57:59.064Z,37.70
2018-09-26T17:00:27.753Z,38.30
2018-09-26T17:02:56.310Z,38.40
2018-09-26T17:05:24.811Z,38.30
2018-09-26T17:07:53.373Z,38.80
2018-09-26T17:10:21.965Z,38.90
2018-09-26T17:12:51.100Z,39.30
2018-09-26T17:15:19.743Z,40.20
2018-09-26T17:17:48.329Z,39.80
2018-09-26T17:20:17.289Z,39.70
2018-09-26T17:22:53.926Z,40.30
2018-09-26T17:25:26.215Z,40.40
2018-09-26T17:27:55.736Z,40.10
2018-09-26T17:30:25.379Z,40.10
2018-09-26T17:37:50.708Z,41.60
2018-09-26T17:40:19.904Z,40.60
2018-09-26T17:42:49.383Z,40.50
2018-09-26T17:45:18.825Z,41.10
2018-09-26T17:47:50.355Z,41.10
2018-09-26T17:50:20.436Z,41.00
2018-09-26T17:55:17.272Z,42.90
2018-09-26T17:57:46.167Z,43.00
2018-09-26T18:00:15.698Z,43.70
2018-09-26T18:02:44.134Z,44.10
2018-09-26T18:05:12.753Z,44.40
2018-09-26T18:07:42.417Z,44.80
2018-09-26T18:10:11.499Z,44.60
2018-09-26T18:12:39.999Z,44.80
2018-09-26T18:15:08.584Z,44.70
2018-09-26T18:17:47.444Z,45.20
2018-09-26T18:20:16.438Z,45.50
2018-09-26T18:22:45.296Z,45.90
2018-09-26T18:25:16.624Z,45.60
2018-09-26T18:27:57.373Z,46.00
2018-09-26T18:30:27.935Z,46.00
2018-09-26T18:32:57.643Z,46.20
2018-09-26T18:35:28.298Z,46.50
2018-09-26T18:37:58.800Z,46.50
2018-09-26T18:40:29.280Z,46.30
2018-09-26T18:42:58.692Z,47.20
2018-09-26T18:45:27.232Z,47.20
2018-09-26T18:47:55.809Z,47.50
2018-09-26T18:50:24.350Z,47.70
2018-09-26T18:52:53.317Z,47.80
2018-09-26T18:55:24.935Z,47.90
2018-09-26T18:57:54.274Z,47.60
2018-09-26T19:00:27.907Z,47.80
2018-09-26T19:02:57.926Z,47.10
2018-09-26T19:05:54.140Z,48.00
2018-09-26T19:08:22.899Z,47.70
2018-09-26T19:10:51.870Z,46.50
2018-09-26T19:13:22.792Z,46.70
2018-09-26T19:15:52.860Z,48.30
2018-09-26T19:18:21.646Z,48.40
2018-09-26T19:20:50.977Z,48.60
2018-09-26T21:49:51.787Z,56.80
2018-09-26T21:52:20.627Z,56.70
2018-09-26T21:54:49.333Z,56.60
2018-09-26T21:57:18.042Z,56.70
2018-09-26T21:59:48.576Z,56.80
2018-09-26T22:02:23.117Z,56.90
2018-09-26T22:04:52.017Z,56.70
2018-09-26T22:07:21.509Z,56.90
2018-09-26T22:09:50.722Z,56.80
2018-09-26T22:12:19.650Z,56.80
2018-09-26T22:14:48.596Z,56.60
2018-09-26T22:17:18.456Z,56.40
2018-09-26T22:19:49.460Z,56.70
2018-09-26T22:22:23.828Z,56.60
2018-09-26T22:24:53.076Z,56.50
2018-09-26T22:27:21.795Z,57.10
2018-09-26T22:29:51.042Z,57.30
2018-09-26T22:32:19.652Z,57.50
2018-09-26T22:34:48.240Z,57.70
2018-09-26T22:37:17.206Z,57.80
2018-09-26T22:39:45.888Z,58.10
2018-09-26T22:44:45.199Z,58.00
2018-09-26T22:47:13.752Z,58.20
2018-09-26T22:49:42.345Z,58.30
2018-09-26T22:52:10.878Z,58.60
2018-09-26T22:54:39.477Z,58.30
2018-09-26T22:57:08.038Z,58.50
2018-09-26T22:59:36.488Z,59.10
2018-09-26T23:04:33.300Z,59.00
2018-09-26T23:07:01.851Z,58.90
2018-09-26T23:09:30.388Z,58.80
2018-09-26T23:11:58.912Z,58.70
2018-09-26T23:14:27.449Z,58.80
2018-09-26T23:16:55.960Z,58.60
2018-09-26T23:19:24.563Z,59.00
2018-09-26T23:21:53.097Z,59.10
2018-09-26T23:24:21.720Z,59.00
2018-09-26T23:26:50.422Z,58.80
2018-09-26T23:29:19.055Z,58.20
2018-09-26T23:31:47.723Z,58.20
2018-09-26T23:34:16.307Z,58.50
2018-09-26T23:36:44.855Z,58.60
2018-09-26T23:39:13.363Z,58.60
2018-09-26T23:41:41.858Z,58.60
2018-09-26T23:44:10.532Z,58.30
2018-09-26T23:46:41.283Z,58.30
2018-09-26T23:49:09.707Z,58.30
2018-09-26T23:51:38.196Z,58.60
2018-09-26T23:54:06.734Z,58.50
2018-09-26T23:56:35.234Z,58.80
2018-09-26T23:59:03.759Z,58.60
